Skip Navigation Links
NOAA logo - Click to go to the NOAA homepage
NOAA's National Weather Service
Alaska Aviation Weather Unit
  NWS logo - Click to go to the NWS homepage
Left Navbar Graphic     02 AKDT = 10 GMT

   
NOAA is celebrating 200 years of science, service, and stewardship. Visit the NOAA 200th celebration Web site to learn more.
USA.gov is the U.S. Government's official Web portal to all Federal, state and local government Web resources and services.
Facebook
NWS on Facebook

AAWU Home :: Display TAF Add Bookmark
METAR PASK 270456Z AUTO 30003KT 10SM CLR M22/M27 A3002 RMK AO2 SLP164
     T12221272 FZRANO $=

METAR PASK 270556Z AUTO 00000KT 10SM CLR M26/M29 A3002 RMK AO2 SLP162
     T12611289 11156 21261 58006 FZRANO $=

METAR PASK 270656Z AUTO 00000KT 6SM BR CLR M27/M29 A3001 RMK AO2
 SLP160 T12671289 FZRANO $=

METAR PASK 270756Z AUTO 00000KT 6SM BR CLR M28/M30 A3001 RMK AO2 SLP161
     T12781300 FZRANO $=

METAR PASK 270956Z AUTO 00000KT 10SM CLR M30/M33 A3001 RMK AO2 SLP158
     T13001333 FZRANO $=


NOAA's National Weather Service
Alaska Aviation Weather Unit
6930 Sand Lake Road
Anchorage, AK 99502-1845
Disclaimer
Credits
Glossary
Privacy Policy
About Us
Career Opportunities
Contact AAWU Internet Services Site last modified: April, 17th 2012